Flight Track Log - Related Links

Times and Time Zones

All times are in EDT time to prevent confusion due to time zone crossing. See the JBU51 flight status page for this flight to view local times or setup timezone preferences in your user account.


Time Position Orientation Groundspeed Altitude Reporting Facility
EDT Latitude Longitude Course Direction KTS MPH feet Rate Location/Type
Wed 11:47:02 AM 44.3883 -73.1664 196° South 206 237 4,400  Level Boston Center
Wed 11:48:02 AM 44.3275 -73.2264 215° Southwest 250 288 7,700 3,250 Climbing Boston Center
Wed 11:49:00 AM 44.0552 -73.3038 194° South  Level FlightAware Approximate
Wed 11:49:02 AM 44.2397 -73.2631 197° South 285 328 10,900  Level Boston Center
Wed 11:50:00 AM 43.9720 -73.3316 194° South  Level FlightAware Approximate
Wed 11:50:02 AM 44.1478 -73.2964 195° South 328 377 13,400  Level Boston Center
Wed 11:51:00 AM 43.8891 -73.3611 196° South  Level FlightAware Approximate
Wed 11:51:02 AM 44.0497 -73.3183 189° South 353 406 15,900  Level Boston Center
Wed 11:52:00 AM 43.8069 -73.3941 196° South  Level FlightAware Approximate
Wed 11:52:02 AM 43.9453 -73.3425 189° South 381 438 17,800  Level Boston Center
Wed 11:53:02 AM 43.8367 -73.3669 189° South 391 450 19,900 2,100 Climbing Boston Center
Wed 11:54:02 AM 43.7197 -73.3908 188° South 408 470 22,000 1,900 Climbing Boston Center
Wed 11:55:02 AM 43.6133 -73.4150 189° South 423 487 23,700 1,750 Climbing Boston Center
Wed 11:56:02 AM 43.5064 -73.4906 207° Southwest 430 495 25,500 1,550 Climbing Boston Center
Wed 11:57:02 AM 43.3953 -73.5717 208° Southwest 442 509 26,800 1,250 Climbing Boston Center
Wed 11:58:02 AM 43.2739 -73.6206 196° South 449 517 28,000 600 Climbing Boston Center
Wed 11:59:02 AM 43.1256 -73.6406 186° South 468 539 28,000  Level Boston Center
Wed 12:00:02 PM 42.9983 -73.6578 186° South 468 539 28,000  Level Boston Center
Wed 12:01:02 PM 42.8667 -73.6753 186° South 473 544 28,000  Level Boston Center
Wed 12:02:02 PM 42.7394 -73.6925 186° South 467 537 28,000  Level Boston Center
Wed 12:03:02 PM 42.6100 -73.7125 186° South 467 537 28,000  Level Boston Center
Wed 12:04:02 PM 42.4911 -73.7239 184° South 467 537 28,000  Level Boston Center
Wed 12:05:02 PM 42.3617 -73.7411 186° South 472 543 28,000  Level Boston Center
Wed 12:06:02 PM 42.2344 -73.7553 185° South 472 543 28,000  Level Boston Center
Wed 12:07:02 PM 42.1050 -73.7719 185° South 472 543 28,000  Level Boston Center
Wed 12:08:02 PM 41.9775 -73.7889 186° South 466 536 28,000  Level Boston Center
Wed 12:09:02 PM 41.8525 -73.8031 185° South 461 531 28,000 -950 Level Boston Center
Wed 12:10:02 PM 41.7236 -73.7781 172° South 455 524 26,100 -2,082 Descending Boston Center
Wed 12:12:18 PM 41.5086 -73.8572 195° South 370 426 21,200 -1,867 Descending New York Center
Wed 12:13:18 PM 41.4408 -73.9758 233° Southwest 375 432 20,000 -610 Descending New York Center
Wed 12:14:16 PM 41.3672 -74.0828 227° Southwest 384 442 20,000  Level New York Center
Wed 12:15:17 PM 41.2661 -74.1247 197° South 384 442 20,000  Level New York Center
Wed 12:16:18 PM 41.1575 -74.1275 181° South 375 432 20,000 -344 Level New York Center
Wed 12:17:19 PM 41.0492 -74.1306 181° South 388 447 19,300 -667 Descending New York Center
Wed 12:17:48 PM 40.9833 -74.1333 182° South 354 407 19,000 -217 Descending New York TRACON
Wed 12:18:42 PM 40.9000 -74.1000 163° South 344 396 19,000 -650 Level New York TRACON
Wed 12:19:48 PM 40.8333 -74.0000 131° Southeast 329 379 17,700 -1,286 Descending New York TRACON
Wed 12:20:48 PM 40.7833 -73.9000 123° Southeast 318 366 16,300 -1,650 Descending New York TRACON
Wed 12:21:48 PM 40.7333 -73.8167 128° Southeast 304 350 14,400 -1,650 Descending New York TRACON
Wed 12:22:48 PM 40.6833 -73.7333 128° Southeast 345 397 13,000 -1,600 Descending New York TRACON
Wed 12:24:48 PM 40.5333 -73.6667 161° South 284 327 9,600 -1,733 Descending New York TRACON
Wed 12:25:48 PM 40.4500 -73.7000 197° South 285 328 7,800 -1,750 Descending New York TRACON
Wed 12:26:48 PM 40.3833 -73.7333 201° Southwest 281 323 6,100 -1,650 Descending New York TRACON
Wed 12:27:48 PM 40.3333 -73.8000 225° Southwest 291 335 4,500 -1,500 Descending New York TRACON
Wed 12:28:48 PM 40.3667 -73.8833 298° West 273 314 3,100 -1,011 Descending New York TRACON
Wed 12:29:17 PM 40.3864 -73.9156 309° West 204 235 3,000 -100 Descending New York Center
Wed 12:29:48 PM 40.4167 -73.9500 319° Northwest 239 275 3,000  Level New York TRACON
Wed 12:30:42 PM 40.4667 -73.9500 360° North 184 212 3,000  Level New York TRACON
Wed 12:31:48 PM 40.5167 -73.9667 346° North 183 211 3,000  Level New York TRACON
Wed 12:32:48 PM 40.5667 -73.9333 27° Northeast 184 212 3,000 -250 Level New York TRACON
Wed 12:33:48 PM 40.6000 -73.9000 37° Northeast 177 204 2,500 -700 Descending New York TRACON
Wed 12:34:48 PM 40.6500 -73.8667 27° Northeast 179 206 1,600 -842 Descending New York TRACON
Wed 12:35:42 PM 40.6667 -73.8333 57° Northeast 135 155 900 -778 Descending New York TRACON

Login

Don't have an account? Register now (free) for customized features, flight alerts, and more!